Time;durP1;ratioP1;P1;durP2;ratioP2;P2;SDS_P1;SDS_P2;PMS_P1;PMS_P2;Temp;Humidity;BMP_temperature;BMP_pressure;BME280_temperature;BME280_humidity;BME280_pressure;Samples;Min_cycle;Max_cycle;Signal;HPM_P1;HPM_P2
2022/05/31 00:00:50;;;;;;;70.93;65.47;;;;;;;11.54;100.00;101238.36;2033213;70;26226;-71
2022/05/31 00:03:20;;;;;;;67.73;62.23;;;;;;;11.33;100.00;101239.80;2016179;70;26682;-72
2022/05/31 00:05:51;;;;;;;65.00;59.57;;;;;;;11.13;100.00;101231.46;2005948;70;26204;-70
2022/05/31 00:08:22;;;;;;;67.10;61.73;;;;;;;11.07;100.00;101224.27;1979230;71;26263;-70
2022/05/31 00:10:52;;;;;;;66.80;61.33;;;;;;;10.95;100.00;101218.97;1985123;72;26260;-71
2022/05/31 00:13:22;;;;;;;63.97;58.73;;;;;;;11.00;100.00;101217.30;1975701;72;26658;-70
2022/05/31 00:15:52;;;;;;;60.63;55.63;;;;;;;10.92;100.00;101231.20;1985616;71;26376;-70
2022/05/31 00:18:22;;;;;;;64.43;59.23;;;;;;;10.92;100.00;101233.98;1979176;72;26228;-70
2022/05/31 00:20:53;;;;;;;64.77;59.37;;;;;;;11.00;100.00;101236.20;1979260;72;26298;-70
2022/05/31 00:23:24;;;;;;;66.13;60.73;;;;;;;11.08;100.00;101236.22;1979237;72;26223;-70
2022/05/31 00:25:54;;;;;;;67.00;61.50;;;;;;;11.13;100.00;101238.42;1979241;72;26245;-72
2022/05/31 00:28:25;;;;;;;69.10;63.60;;;;;;;11.08;100.00;101237.61;1978650;72;26239;-72
2022/05/31 00:30:55;;;;;;;72.53;66.83;;;;;;;11.28;100.00;101238.97;1978614;72;26189;-72
2022/05/31 00:33:27;;;;;;;69.30;63.50;;;;;;;11.07;100.00;101240.94;1978577;72;26235;-71
2022/05/31 00:35:57;;;;;;;76.10;69.93;;;;;;;11.15;100.00;101243.16;1978498;72;26232;-71
2022/05/31 00:38:27;;;;;;;80.73;74.77;;;;;;;11.02;100.00;101237.32;1978722;72;26633;-70
2022/05/31 00:41:23;;;;;;;73.93;68.20;;;;;;;11.08;100.00;101232.85;1978631;72;26270;-70
2022/05/31 00:43:29;;;;;;;74.30;68.57;;;;;;;10.98;100.00;101232.05;1974339;72;26180;-72
2022/05/31 00:46:02;;;;;;;71.57;65.73;;;;;;;10.93;100.00;101234.27;1978531;72;26231;-70
2022/05/31 00:48:35;;;;;;;71.37;65.57;;;;;;;11.05;100.00;101232.03;1908717;74;26286;-71
2022/05/31 00:51:09;;;;;;;71.07;65.47;;;;;;;10.84;100.00;101224.81;1895496;75;26270;-71
2022/05/31 00:53:42;;;;;;;71.83;66.23;;;;;;;10.57;100.00;101227.04;1936291;74;26184;-71
2022/05/31 00:56:16;;;;;;;72.73;67.10;;;;;;;10.63;100.00;101226.75;1930428;74;26211;-70
2022/05/31 01:01:56;;;;;;;72.60;66.77;;;;;;;10.73;100.00;101215.66;2059908;69;32819;-73
2022/05/31 01:04:32;;;;;;;76.23;70.33;;;;;;;10.46;100.00;101231.73;1943069;73;26302;-73
2022/05/31 01:07:03;;;;;;;69.73;64.13;;;;;;;10.31;100.00;101235.88;1934399;73;26333;-72
2022/05/31 01:09:33;;;;;;;69.73;64.13;;;;;;;10.38;100.00;101233.11;1952636;73;26772;-72
2022/05/31 01:15:13;;;;;;;72.13;66.53;;;;;;;10.18;100.00;101225.30;2032506;69;32624;-72
2022/05/31 01:17:45;;;;;;;70.33;64.83;;;;;;;10.06;100.00;101226.31;1947745;73;26290;-71
2022/05/31 01:20:17;;;;;;;78.23;72.57;;;;;;;10.07;100.00;101221.61;1937043;74;26259;-72
2022/05/31 01:22:51;;;;;;;69.40;63.93;;;;;;;10.13;100.00;101232.18;1962893;72;26325;-71
2022/05/31 01:25:31;;;;;;;69.40;64.00;;;;;;;10.11;100.00;101224.66;1940258;73;26309;-71
2022/05/31 01:28:06;;;;;;;67.27;61.90;;;;;;;10.10;100.00;101228.57;1934708;73;26283;-71
2022/05/31 01:30:39;;;;;;;75.33;69.67;;;;;;;10.10;100.00;101234.13;1928992;73;26694;-72
2022/05/31 01:33:13;;;;;;;66.37;60.87;;;;;;;10.14;100.00;101231.08;2010290;70;26261;-71
2022/05/31 01:35:44;;;;;;;68.33;62.87;;;;;;;10.28;100.00;101234.47;2011434;70;26258;-71
2022/05/31 01:38:17;;;;;;;70.73;65.10;;;;;;;10.33;100.00;101233.65;2017245;70;26347;-71
2022/05/31 01:40:51;;;;;;;68.70;63.10;;;;;;;10.44;100.00;101232.55;2010678;70;26212;-72
2022/05/31 01:43:22;;;;;;;74.43;68.93;;;;;;;10.40;100.00;101232.27;2018300;70;26237;-72
2022/05/31 01:49:02;;;;;;;72.30;66.70;;;;;;;10.41;100.00;101215.05;2059821;69;32680;-71
2022/05/31 01:51:32;;;;;;;71.40;65.70;;;;;;;10.32;100.00;101222.25;1935396;73;26224;-71
2022/05/31 01:54:03;;;;;;;67.20;61.47;;;;;;;10.38;100.00;101220.61;1935415;73;26278;-71
2022/05/31 01:56:35;;;;;;;67.40;61.90;;;;;;;10.47;100.00;101220.36;1963140;72;26483;-71
2022/05/31 01:59:07;;;;;;;72.47;66.77;;;;;;;10.43;100.00;101217.85;1935929;73;26290;-72
2022/05/31 02:01:40;;;;;;;76.93;71.33;;;;;;;10.45;100.00;101226.73;2021266;70;26535;-70
2022/05/31 02:04:11;;;;;;;74.67;68.87;;;;;;;10.47;100.00;101223.13;2005599;70;26752;-71
2022/05/31 02:06:42;;;;;;;72.20;66.60;;;;;;;10.44;100.00;101226.99;2006512;70;26224;-70
2022/05/31 02:09:14;;;;;;;75.13;69.33;;;;;;;10.41;100.00;101229.78;1977008;72;26286;-71
2022/05/31 02:11:45;;;;;;;75.60;69.80;;;;;;;10.36;100.00;101226.14;1985617;72;26274;-71
2022/05/31 02:14:15;;;;;;;71.57;65.87;;;;;;;10.34;100.00;101226.99;1977889;72;26279;-71
2022/05/31 02:16:45;;;;;;;75.47;69.57;;;;;;;10.50;100.00;101228.68;1979317;72;26806;-70
2022/05/31 02:19:27;;;;;;;72.77;67.17;;;;;;;10.35;100.00;101232.83;1984151;72;26279;-71
2022/05/31 02:22:00;;;;;;;69.23;63.73;;;;;;;10.49;100.00;101233.95;1981028;72;26260;-71
2022/05/31 02:24:31;;;;;;;70.17;64.67;;;;;;;10.48;100.00;101234.50;1909296;74;26184;-72
2022/05/31 02:27:03;;;;;;;73.33;67.63;;;;;;;10.62;100.00;101234.80;1894020;75;26702;-72
2022/05/31 02:29:35;;;;;;;71.57;65.97;;;;;;;10.56;100.00;101231.76;1927696;73;26340;-72
2022/05/31 02:32:09;;;;;;;70.73;65.23;;;;;;;10.57;100.00;101230.63;1985530;72;26674;-71
2022/05/31 02:34:42;;;;;;;75.33;69.63;;;;;;;10.67;100.00;101227.87;1976951;72;26244;-70
2022/05/31 02:37:14;;;;;;;75.27;69.57;;;;;;;10.63;100.00;101234.25;1976044;72;26767;-70
2022/05/31 02:39:44;;;;;;;75.77;69.97;;;;;;;10.58;100.00;101230.91;1983271;72;26196;-71
2022/05/31 02:42:15;;;;;;;71.57;65.97;;;;;;;10.56;100.00;101235.09;1985575;72;26240;-71
2022/05/31 02:44:46;;;;;;;71.47;65.80;;;;;;;10.63;100.00;101225.91;1971441;72;26341;-71
2022/05/31 02:47:17;;;;;;;75.57;69.57;;;;;;;10.66;100.00;101225.36;1976754;71;26439;-70
2022/05/31 02:49:48;;;;;;;70.00;64.33;;;;;;;10.58;100.00;101234.23;1979256;72;26620;-72
2022/05/31 02:52:19;;;;;;;71.43;65.67;;;;;;;10.58;100.00;101230.91;1979227;72;26787;-71
2022/05/31 02:54:49;;;;;;;75.80;70.10;;;;;;;10.69;100.00;101228.44;1979337;72;26250;-71
2022/05/31 02:57:19;;;;;;;72.13;66.63;;;;;;;10.49;100.00;101232.01;1979279;72;26332;-70
2022/05/31 02:59:49;;;;;;;73.20;67.53;;;;;;;10.43;100.00;101235.06;1978452;72;26264;-72
2022/05/31 03:02:19;;;;;;;74.37;68.47;;;;;;;10.44;100.00;101229.22;1978537;72;26224;-71
2022/05/31 03:04:49;;;;;;;73.57;67.87;;;;;;;10.35;100.00;101221.73;1978538;72;26245;-71
2022/05/31 03:07:19;;;;;;;71.57;65.87;;;;;;;10.46;100.00;101216.45;1978609;72;26224;-71
2022/05/31 03:09:50;;;;;;;72.30;66.67;;;;;;;10.41;100.00;101217.83;1978518;72;26276;-70
2022/05/31 03:12:22;;;;;;;70.27;64.47;;;;;;;10.39;100.00;101220.91;1978565;72;26176;-71
2022/05/31 03:14:55;;;;;;;74.23;68.43;;;;;;;10.53;100.00;101228.12;1978495;72;26201;-71
2022/05/31 03:20:35;;;;;;;73.30;67.57;;;;;;;10.41;100.00;101216.44;2050848;69;32785;-71
2022/05/31 03:23:09;;;;;;;69.53;63.83;;;;;;;10.35;100.00;101221.17;1944321;73;26270;-73
2022/05/31 03:25:42;;;;;;;71.00;65.20;;;;;;;10.33;100.00;101219.77;1937084;73;26206;-72
2022/05/31 03:28:13;;;;;;;68.73;63.03;;;;;;;10.46;100.00;101222.01;1965502;72;26257;-71
2022/05/31 03:30:43;;;;;;;71.47;65.57;;;;;;;10.54;100.00;101220.63;1915769;72;26223;-71
2022/05/31 03:33:15;;;;;;;68.57;62.87;;;;;;;10.43;100.00;101216.47;1967974;72;26356;-71
2022/05/31 03:35:45;;;;;;;70.60;64.97;;;;;;;10.58;100.00;101210.08;1930107;73;26216;-72
2022/05/31 03:38:15;;;;;;;72.30;66.50;;;;;;;10.49;100.00;101211.17;1923325;74;26263;-72
2022/05/31 03:40:57;;;;;;;70.63;64.73;;;;;;;10.46;100.00;101213.13;1936896;74;26631;-73
2022/05/31 03:43:30;;;;;;;69.13;63.63;;;;;;;10.46;100.00;101210.91;1964533;72;26792;-73
2022/05/31 03:46:00;;;;;;;72.23;66.53;;;;;;;10.67;100.00;101211.75;1933292;73;26660;-73
2022/05/31 03:48:30;;;;;;;76.57;70.77;;;;;;;10.59;100.00;101204.80;1934965;73;26271;-71
2022/05/31 03:51:02;;;;;;;72.57;66.67;;;;;;;10.62;100.00;101204.80;1930306;73;26637;-72
2022/05/31 03:53:33;;;;;;;72.23;66.53;;;;;;;10.61;100.00;101208.12;1923434;74;26226;-72
2022/05/31 03:56:05;;;;;;;75.37;69.37;;;;;;;10.61;100.00;101209.52;1925339;73;26310;-71
2022/05/31 03:58:35;;;;;;;69.77;64.17;;;;;;;10.49;100.00;101210.34;2015990;71;26303;-71
2022/05/31 04:01:06;;;;;;;70.30;64.67;;;;;;;10.34;100.00;101208.94;1915669;73;936248;-72
2022/05/31 04:03:36;;;;;;;69.80;63.90;;;;;;;10.25;100.00;101219.75;1826697;78;26280;-71
2022/05/31 04:09:12;;;;;;;68.03;62.47;;;;;;;10.35;100.00;101201.73;2059567;69;33108;-72
2022/05/31 04:11:42;;;;;;;71.67;66.17;;;;;;;10.26;100.00;101207.55;1998145;70;26768;-72
2022/05/31 04:14:13;;;;;;;71.97;66.40;;;;;;;10.26;100.00;101209.48;1944923;73;26803;-73
2022/05/31 04:16:43;;;;;;;66.13;60.70;;;;;;;10.31;100.00;101212.28;1930314;73;26218;-73
2022/05/31 04:19:14;;;;;;;67.37;61.57;;;;;;;10.32;100.00;101205.59;1964043;72;26269;-73
2022/05/31 04:21:44;;;;;;;69.43;63.83;;;;;;;10.48;100.00;101209.50;1920285;72;26172;-72
2022/05/31 04:24:14;;;;;;;69.47;63.90;;;;;;;10.37;100.00;101209.77;1930975;73;26290;-71
2022/05/31 04:26:47;;;;;;;74.80;68.90;;;;;;;10.45;100.00;101207.28;1936793;74;26281;-73
2022/05/31 04:29:17;;;;;;;73.03;67.07;;;;;;;10.57;100.00;101205.63;1966542;72;26286;-72
2022/05/31 04:31:48;;;;;;;79.17;73.03;;;;;;;10.67;100.00;101195.92;1934524;73;26226;-73
2022/05/31 04:34:19;;;;;;;86.03;79.73;;;;;;;10.62;100.00;101200.63;2015546;70;26206;-73
2022/05/31 04:36:49;;;;;;;82.10;75.70;;;;;;;10.75;100.00;101193.97;1933601;73;26372;-73
2022/05/31 04:39:19;;;;;;;83.10;76.80;;;;;;;10.79;100.00;101199.80;1939506;73;26285;-71
2022/05/31 04:41:49;;;;;;;83.00;76.50;;;;;;;10.79;100.00;101202.58;1965158;73;26238;-72
2022/05/31 04:44:19;;;;;;;81.80;75.43;;;;;;;10.82;100.00;101202.04;1936320;73;26754;-73
2022/05/31 04:46:49;;;;;;;84.50;78.00;;;;;;;10.86;100.00;101203.98;1964849;73;26668;-73
2022/05/31 04:49:21;;;;;;;82.37;76.07;;;;;;;10.87;100.00;101195.91;1932838;73;26276;-73
2022/05/31 04:51:51;;;;;;;80.17;73.93;;;;;;;10.72;100.00;101202.03;2004501;70;26222;-73
2022/05/31 04:54:23;;;;;;;81.10;74.70;;;;;;;10.78;100.00;101194.80;1933697;73;26234;-73
2022/05/31 04:56:53;;;;;;;81.97;75.47;;;;;;;10.82;100.00;101199.27;1936788;74;26188;-72
2022/05/31 04:59:23;;;;;;;72.10;66.10;;;;;;;10.92;100.00;101200.63;1969419;72;26276;-72
2022/05/31 05:01:54;;;;;;;75.20;68.73;;;;;;;10.90;100.00;101197.31;1942305;73;26369;-72
2022/05/31 05:04:24;;;;;;;73.73;67.63;;;;;;;10.92;100.00;101200.08;2012897;70;26315;-71
2022/05/31 05:06:54;;;;;;;75.30;69.13;;;;;;;10.96;100.00;101201.19;1936822;73;26216;-73
2022/05/31 05:09:24;;;;;;;74.43;68.40;;;;;;;10.83;100.00;101201.74;1901801;75;26660;-73
2022/05/31 05:11:54;;;;;;;76.07;70.07;;;;;;;10.92;100.00;101197.30;1937026;73;26231;-73
2022/05/31 05:14:25;;;;;;;77.30;70.87;;;;;;;11.07;100.00;101198.41;1932110;74;26216;-73
2022/05/31 05:16:55;;;;;;;73.03;66.93;;;;;;;10.94;100.00;101202.59;1938587;74;26778;-73
2022/05/31 05:19:25;;;;;;;74.33;68.23;;;;;;;11.02;100.00;101203.97;1930109;74;26264;-71
2022/05/31 05:21:55;;;;;;;71.40;65.40;;;;;;;11.04;100.00;101206.73;1928916;74;26344;-71
2022/05/31 05:24:25;;;;;;;73.20;67.07;;;;;;;11.00;100.00;101203.39;1940508;74;26326;-73
2022/05/31 05:26:55;;;;;;;73.00;66.87;;;;;;;11.08;100.00;101199.49;1940425;74;26261;-73
2022/05/31 05:32:14;;;;;;;72.37;66.07;;;;;;;11.02;100.00;101202.02;1930364;74;26218;-71
2022/05/31 05:34:44;;;;;;;74.23;67.90;;;;;;;11.15;100.00;101208.95;1930374;74;26270;-71
2022/05/31 05:37:16;;;;;;;75.63;68.93;;;;;;;11.26;100.00;101207.25;1930359;74;26196;-71
2022/05/31 05:39:46;;;;;;;71.47;64.97;;;;;;;11.20;100.00;101202.00;1930246;74;26235;-71
2022/05/31 05:42:17;;;;;;;75.70;69.10;;;;;;;11.26;100.00;101206.42;1930366;74;26263;-71
2022/05/31 05:44:47;;;;;;;74.10;67.93;;;;;;;11.25;100.00;101209.75;1930342;74;26759;-72
2022/05/31 05:47:18;;;;;;;80.63;73.93;;;;;;;11.39;100.00;101208.06;1930301;74;26196;-71
2022/05/31 05:49:48;;;;;;;79.33;72.70;;;;;;;11.39;100.00;101212.23;1930373;74;26192;-72
2022/05/31 05:52:19;;;;;;;78.67;71.87;;;;;;;11.44;100.00;101215.56;1930245;74;26378;-72
2022/05/31 05:54:49;;;;;;;80.87;74.17;;;;;;;11.48;100.00;101215.27;1930231;74;26619;-70
2022/05/31 05:57:19;;;;;;;84.13;77.33;;;;;;;11.44;100.00;101215.56;1930170;74;26266;-71
2022/05/31 05:59:49;;;;;;;83.97;77.10;;;;;;;11.32;100.00;101203.36;1930071;74;26255;-72
2022/05/31 06:02:22;;;;;;;83.17;76.47;;;;;;;11.42;100.00;101204.70;1930104;74;26263;-71
2022/05/31 06:08:03;;;;;;;76.87;70.27;;;;;;;11.53;100.00;101199.13;2013331;69;32685;-71
2022/05/31 06:13:44;;;;;;;83.47;76.77;;;;;;;11.54;100.00;101200.24;2060033;69;33105;-72
2022/05/31 06:16:15;;;;;;;82.93;76.30;;;;;;;11.67;100.00;101211.33;2021324;70;26690;-72
2022/05/31 06:18:49;;;;;;;81.27;74.70;;;;;;;11.57;100.00;101208.02;1929758;73;26220;-74
2022/05/31 06:21:22;;;;;;;84.93;78.23;;;;;;;11.61;100.00;101209.11;1936873;74;26694;-74
2022/05/31 06:23:54;;;;;;;84.43;77.63;;;;;;;11.67;100.00;101214.11;1964448;72;26338;-72
2022/05/31 06:26:24;;;;;;;90.30;83.20;;;;;;;11.66;100.00;101209.66;1937065;74;26249;-73
2022/05/31 06:28:55;;;;;;;89.47;82.63;;;;;;;11.68;100.00;101212.42;1965690;72;26282;-74
2022/05/31 06:31:26;;;;;;;90.57;83.47;;;;;;;11.71;100.00;101212.42;1928100;73;26208;-74
2022/05/31 06:33:56;;;;;;;88.10;81.10;;;;;;;11.85;100.00;101218.50;1967434;72;26201;-74
2022/05/31 06:36:26;;;;;;;90.73;83.70;;;;;;;11.95;100.00;101221.81;1932332;73;26289;-74
2022/05/31 06:38:57;;;;;;;87.00;80.10;;;;;;;11.89;100.00;101218.80;1966799;72;26871;-74
2022/05/31 06:41:27;;;;;;;86.47;79.67;;;;;;;12.00;100.00;101220.95;1937189;73;26753;-72
2022/05/31 06:43:57;;;;;;;84.43;77.73;;;;;;;11.98;100.00;101220.42;1964444;72;26680;-72
2022/05/31 06:46:28;;;;;;;88.53;81.67;;;;;;;12.17;100.00;101214.46;1936805;74;26663;-74
2022/05/31 06:49:00;;;;;;;84.20;77.60;;;;;;;12.19;100.00;101209.45;1967526;72;26645;-74
2022/05/31 06:57:06;;;;;;;86.10;79.30;;;;;;;12.25;100.00;101210.52;1930240;73;26236;-73
2022/05/31 06:59:37;;;;;;;86.27;79.37;;;;;;;12.26;100.00;101213.58;2016781;70;26273;-72
2022/05/31 07:02:08;;;;;;;87.97;81.27;;;;;;;12.32;100.00;101211.61;1929927;73;26730;-73
2022/05/31 07:04:39;;;;;;;88.50;81.60;;;;;;;12.33;100.00;101216.03;1933704;73;26663;-72
2022/05/31 07:07:10;;;;;;;83.30;76.80;;;;;;;12.58;100.00;101215.86;1953154;73;26266;-73
2022/05/31 07:09:41;;;;;;;88.40;81.67;;;;;;;12.43;100.00;101220.72;1940825;73;26184;-71
2022/05/31 07:12:13;;;;;;;84.80;78.30;;;;;;;12.50;100.00;101224.00;1936833;72;26301;-73
2022/05/31 07:14:44;;;;;;;87.43;80.70;;;;;;;12.58;100.00;101227.01;1936778;74;26325;-73
2022/05/31 07:17:15;;;;;;;89.10;82.40;;;;;;;12.45;100.00;101224.86;1936833;74;26239;-72
2022/05/31 07:19:45;;;;;;;88.03;81.33;;;;;;;12.52;100.00;101225.95;1936745;74;26309;-72
2022/05/31 07:22:16;;;;;;;85.10;78.63;;;;;;;12.57;100.00;101228.70;1936826;74;26180;-73
2022/05/31 07:24:46;;;;;;;89.37;82.97;;;;;;;12.59;100.00;101227.84;1936104;74;26196;-72
2022/05/31 07:27:16;;;;;;;87.40;80.83;;;;;;;12.61;100.00;101229.80;1930283;74;26192;-71
2022/05/31 07:29:47;;;;;;;87.13;80.73;;;;;;;12.77;100.00;101227.99;1930239;74;26184;-71
2022/05/31 07:32:17;;;;;;;87.97;81.57;;;;;;;12.57;100.00;101226.76;1930415;74;26258;-73
2022/05/31 07:34:50;;;;;;;90.60;84.10;;;;;;;12.57;100.00;101232.33;1930216;74;26236;-71
2022/05/31 07:37:21;;;;;;;90.47;83.83;;;;;;;12.62;100.00;101231.47;1930270;74;26359;-71
2022/05/31 07:39:52;;;;;;;85.97;79.57;;;;;;;12.70;100.00;101226.11;1930209;74;26473;-73
2022/05/31 07:42:22;;;;;;;95.00;88.27;;;;;;;12.68;100.00;101222.77;1930235;74;26266;-73
2022/05/31 07:48:01;;;;;;;91.10;84.40;;;;;;;12.70;100.00;101208.55;2047716;69;32760;-74
2022/05/31 07:50:31;;;;;;;88.27;81.70;;;;;;;12.81;100.00;101217.09;2006868;70;26233;-73
2022/05/31 07:53:03;;;;;;;88.07;81.43;;;;;;;12.81;100.00;101214.86;2012146;70;26440;-74
2022/05/31 07:55:34;;;;;;;90.53;84.07;;;;;;;12.95;100.00;101218.09;2015248;70;26739;-73
2022/05/31 08:00:53;;;;;;;80.60;74.43;;;;;;;13.12;100.00;101218.52;2017210;70;26226;-73
2022/05/31 08:03:23;;;;;;;80.40;74.27;;;;;;;13.41;100.00;101213.48;2015962;70;26667;-73
2022/05/31 08:05:54;;;;;;;74.27;68.57;;;;;;;13.85;100.00;101212.70;2015954;71;26210;-75
2022/05/31 08:08:24;;;;;;;75.10;69.57;;;;;;;14.04;100.00;101212.16;1979648;70;26337;-75
2022/05/31 08:10:55;;;;;;;73.43;67.90;;;;;;;14.06;100.00;101215.50;1979584;72;26293;-75
2022/05/31 08:13:25;;;;;;;75.97;70.40;;;;;;;14.13;100.00;101212.32;1977522;72;26296;-76
2022/05/31 08:15:56;;;;;;;74.10;68.40;;;;;;;14.12;100.00;101207.86;1971878;72;26295;-76
2022/05/31 08:18:27;;;;;;;74.90;69.03;;;;;;;14.40;100.00;101208.34;1974493;72;26442;-75
2022/05/31 08:21:01;;;;;;;75.50;69.73;;;;;;;14.58;100.00;101207.52;1975282;72;26287;-76
2022/05/31 08:23:32;;;;;;;77.50;72.00;;;;;;;14.26;100.00;101210.75;1971219;72;26309;-74
2022/05/31 08:26:02;;;;;;;71.63;66.13;;;;;;;14.37;100.00;101208.95;1979622;72;26231;-73
2022/05/31 08:31:38;;;;;;;71.53;66.13;;;;;;;14.56;100.00;101207.53;2044882;69;32270;-75
2022/05/31 08:34:09;;;;;;;72.63;67.60;;;;;;;14.49;100.00;101206.53;1937893;73;26301;-75
2022/05/31 08:36:40;;;;;;;72.60;67.50;;;;;;;14.29;100.00;101208.77;1941050;73;26291;-75
2022/05/31 08:39:11;;;;;;;84.13;78.43;;;;;;;14.31;100.00;101207.89;1970850;72;26852;-75
2022/05/31 08:41:46;;;;;;;67.67;62.57;;;;;;;14.88;100.00;101195.56;1941490;73;26279;-75
2022/05/31 08:44:35;;;;;;;66.10;61.50;;;;;;;15.23;100.00;101189.91;1930888;73;26338;-73
2022/05/31 08:47:10;;;;;;;77.40;72.20;;;;;;;15.00;100.00;101198.14;2014079;70;26230;-73
2022/05/31 08:52:46;;;;;;;67.17;62.57;;;;;;;15.45;100.00;101181.63;2010194;70;26775;-73
2022/05/31 08:58:12;;;;;;;66.43;62.03;;;;;;;14.80;100.00;101191.51;1941942;73;26686;-75
2022/05/31 09:00:46;;;;;;;65.77;61.67;;;;;;;14.61;100.00;101182.30;1937142;74;26271;-75
2022/05/31 09:03:20;;;;;;;68.70;64.60;;;;;;;14.39;100.00;101182.08;1936261;73;26266;-74
2022/05/31 09:05:58;;;;;;;64.50;60.50;;;;;;;14.55;100.00;101177.34;1942889;73;26218;-75
2022/05/31 09:11:40;;;;;;;67.47;63.17;;;;;;;14.99;100.00;101163.47;2059643;69;32733;-74
2022/05/31 09:14:14;;;;;;;69.90;64.93;;;;;;;15.02;100.00;101169.84;1945450;72;26691;-74
2022/05/31 09:16:48;;;;;;;65.60;61.50;;;;;;;15.47;100.00;101172.36;2024479;70;26284;-73
2022/05/31 09:19:22;;;;;;;62.40;58.80;;;;;;;15.24;100.00;101175.59;2016716;70;26293;-73
2022/05/31 09:21:53;;;;;;;65.00;61.10;;;;;;;14.86;100.00;101174.88;1974748;72;26252;-74
2022/05/31 09:24:24;;;;;;;65.63;61.93;;;;;;;15.14;100.00;101167.97;1943256;73;26220;-73
2022/05/31 09:27:02;;;;;;;53.10;50.10;;;;;;;15.51;100.00;101162.23;1932219;74;26225;-73
2022/05/31 09:29:37;;;;;;;52.97;50.10;;;;;;;15.61;100.00;101154.20;1939951;73;26258;-73
2022/05/31 09:32:12;;;;;;;54.60;51.67;;;;;;;15.88;100.00;101149.39;1965971;72;26222;-73
2022/05/31 09:35:04;;;;;;;52.97;50.33;;;;;;;16.19;100.00;101133.29;1936753;74;26241;-73
2022/05/31 09:37:44;;;;;;;49.60;47.20;;;;;;;16.40;100.00;101141.47;1939594;73;26302;-74
2022/05/31 09:40:24;;;;;;;60.03;56.80;;;;;;;16.38;100.00;101140.41;1936832;74;26231;-74
2022/05/31 09:43:00;;;;;;;55.20;52.40;;;;;;;16.52;100.00;101138.09;1941452;73;26316;-73
2022/05/31 09:45:33;;;;;;;62.30;58.77;;;;;;;16.39;100.00;101131.40;1947277;73;26765;-73
2022/05/31 09:48:06;;;;;;;52.53;49.83;;;;;;;16.47;100.00;101136.84;1922940;74;26347;-73
2022/05/31 09:50:36;;;;;;;47.97;45.67;;;;;;;16.04;100.00;101135.89;1943297;73;26221;-73
2022/05/31 09:57:06;;;;;;;43.13;41.00;;;;;;;15.70;100.00;101137.73;1973521;72;26310;-74
2022/05/31 09:58:30;;;;;;;40.80;38.60;;;;;;;15.75;100.00;101140.43;1940139;73;26711;-74
2022/05/31 10:01:04;;;;;;;46.53;44.17;;;;;;;16.21;100.00;101140.26;1937166;73;26287;-74
2022/05/31 10:03:40;;;;;;;40.30;38.30;;;;;;;16.78;100.00;101137.17;1923559;74;26267;-73
2022/05/31 10:06:17;;;;;;;40.40;38.50;;;;;;;16.52;100.00;101145.94;1934416;73;26283;-75
2022/05/31 10:08:49;;;;;;;39.63;37.80;;;;;;;16.28;100.00;101140.64;1934437;74;26216;-73
2022/05/31 10:14:34;;;;;;;53.43;50.63;;;;;;;15.91;100.00;101148.78;2047238;69;32722;-74
2022/05/31 10:17:16;;;;;;;68.13;64.07;;;;;;;15.45;100.00;101155.03;1941232;73;26419;-74
2022/05/31 10:19:46;;;;;;;72.80;68.23;;;;;;;14.56;100.00;101185.17;1935238;74;26277;-74
2022/05/31 10:22:20;;;;;;;72.53;67.83;;;;;;;14.10;100.00;101180.81;1964599;72;26223;-72
2022/05/31 10:24:50;;;;;;;75.67;70.67;;;;;;;13.82;100.00;101178.38;1932781;73;26644;-75
2022/05/31 10:27:25;;;;;;;78.23;72.90;;;;;;;13.43;100.00;101179.99;2020154;71;26690;-71
2022/05/31 10:29:59;;;;;;;75.50;70.20;;;;;;;13.62;100.00;101180.03;1971563;72;26793;-73
2022/05/31 10:32:32;;;;;;;69.30;64.27;;;;;;;13.72;100.00;101181.88;1937227;73;26232;-71
2022/05/31 10:35:16;;;;;;;69.13;64.50;;;;;;;14.29;100.00;101183.63;1930126;74;26652;-72
2022/05/31 10:37:57;;;;;;;69.00;64.37;;;;;;;14.46;100.00;101179.16;1935585;73;26243;-72
2022/05/31 10:40:37;;;;;;;66.10;62.20;;;;;;;14.24;100.00;101186.48;2015865;71;26195;-72
2022/05/31 10:43:15;;;;;;;66.63;62.63;;;;;;;14.46;100.00;101193.14;2011471;70;26370;-72
2022/05/31 10:45:46;;;;;;;70.13;65.07;;;;;;;14.39;100.00;101209.47;2010050;71;26269;-73
2022/05/31 10:48:16;;;;;;;76.43;71.10;;;;;;;13.75;100.00;101199.42;1975634;72;26327;-73
2022/05/31 10:50:54;;;;;;;76.30;70.77;;;;;;;13.16;100.00;101198.69;1953278;73;26763;-73
2022/05/31 10:53:31;;;;;;;71.97;66.67;;;;;;;13.02;100.00;101195.43;1931777;73;26367;-73
2022/05/31 10:56:05;;;;;;;70.00;64.63;;;;;;;13.02;100.00;101203.23;1938569;73;26288;-74
2022/05/31 10:58:52;;;;;;;65.20;59.90;;;;;;;13.03;100.00;101197.94;1937422;73;26277;-74
2022/05/31 11:01:38;;;;;;;66.53;61.23;;;;;;;13.11;100.00;101198.73;1933933;73;26351;-73
2022/05/31 11:04:19;;;;;;;67.67;62.33;;;;;;;12.86;100.00;101200.33;1933808;73;26289;-73
2022/05/31 11:13:03;;;;;;;69.80;64.30;;;;;;;13.20;100.00;101192.78;2005078;70;26285;-74
2022/05/31 11:15:40;;;;;;;68.37;63.07;;;;;;;13.81;100.00;101192.66;2017063;70;26238;-75
2022/05/31 11:18:22;;;;;;;67.17;62.57;;;;;;;14.31;100.00;101192.52;2010660;70;26558;-74
2022/05/31 11:20:56;;;;;;;69.60;64.60;;;;;;;14.09;100.00;101184.16;1946419;73;26745;-74
2022/05/31 11:23:38;;;;;;;65.70;61.10;;;;;;;14.75;100.00;101175.37;2005848;70;26320;-74
2022/05/31 11:26:21;;;;;;;69.40;64.30;;;;;;;14.82;100.00;101178.59;2023373;70;26696;-74
2022/05/31 11:29:00;;;;;;;67.57;63.03;;;;;;;14.53;100.00;101175.44;2017584;70;26665;-75
2022/05/31 11:31:37;;;;;;;70.43;65.27;;;;;;;14.59;100.00;101175.60;2011977;70;26772;-74
2022/05/31 11:34:34;;;;;;;69.77;64.57;;;;;;;14.18;100.00;101176.50;2011732;70;26216;-75
2022/05/31 11:37:12;;;;;;;72.17;66.93;;;;;;;13.93;100.00;101184.67;2011628;70;26285;-73
2022/05/31 11:39:53;;;;;;;70.53;65.13;;;;;;;13.50;100.00;101187.44;2012139;70;26721;-73
2022/05/31 11:42:30;;;;;;;71.10;65.73;;;;;;;13.79;100.00;101201.88;2013548;70;26215;-74
2022/05/31 11:45:09;;;;;;;74.37;68.63;;;;;;;14.04;100.00;101199.59;2010972;70;26231;-73
2022/05/31 11:47:54;;;;;;;71.77;65.97;;;;;;;13.75;100.00;101204.44;2015476;70;26214;-74
2022/05/31 11:50:29;;;;;;;74.80;69.00;;;;;;;13.69;100.00;101209.84;2015661;70;26721;-73
2022/05/31 11:53:29;;;;;;;75.07;69.37;;;;;;;13.58;100.00;101209.11;2011403;70;26254;-73
2022/05/31 11:56:03;;;;;;;75.90;70.30;;;;;;;13.60;100.00;101211.05;2022014;70;26276;-74
2022/05/31 11:58:39;;;;;;;78.10;72.50;;;;;;;13.45;100.00;101204.23;1937060;74;26647;-75
2022/05/31 12:01:14;;;;;;;72.40;66.80;;;;;;;13.54;100.00;101203.85;1927533;73;26727;-74
2022/05/31 12:03:50;;;;;;;89.53;83.33;;;;;;;13.61;100.00;101200.69;2014231;70;26736;-74
2022/05/31 12:09:33;;;;;;;69.77;64.37;;;;;;;13.99;100.00;101187.67;2060100;69;32673;-74
2022/05/31 12:12:07;;;;;;;72.43;66.83;;;;;;;13.71;100.00;101195.00;1949865;73;26163;-74
2022/05/31 12:14:41;;;;;;;77.43;71.83;;;;;;;13.51;100.00;101202.22;2015421;70;26250;-74
2022/05/31 12:20:22;;;;;;;86.60;80.70;;;;;;;14.00;100.00;101192.11;2052237;69;32957;-73
2022/05/31 12:22:56;;;;;;;72.17;66.97;;;;;;;14.17;100.00;101192.42;2013529;70;26309;-73
2022/05/31 12:25:29;;;;;;;71.83;66.73;;;;;;;14.43;100.00;101190.13;2002179;70;26296;-74
2022/05/31 12:28:07;;;;;;;70.40;65.30;;;;;;;14.71;100.00;101177.95;2015184;70;26258;-75
2022/05/31 12:30:42;;;;;;;85.63;80.07;;;;;;;14.76;100.00;101182.63;1939259;74;26184;-75
2022/05/31 12:37:02;;;;;;;68.43;63.63;;;;;;;15.29;100.00;101154.51;2049527;69;32608;-74